Airfield :
LOGIN :

Register | Disclaimer

   EN    FR    IT 

 










Legend :    VFR   Marginal VFR   IFR   Intensive IFR   Very Intensive IFR
Visi :
Ceiling :
>= 8 km
>= 3000ft
5 to 8 km
1000 to 3000 ft
1500m to 5 km
500 to 1000 ft
800 to 1500m
200 to 500 ft
< 800m
< 200 ft
Symbols :   Thunderstorms  Fog  Heavy snow  Heavy precipitations  Wind > 20 kt
SIGMETs :     Misc.  Thunderstorms  Icing  Turbulence  Mountain Waves  Volcanic Ashes







- Airport Elevation : 42 ft
- IATA code : CAL
- Download approach charts


EGEC - Campbeltown

CURRENT METAR :
  • 171650Z 15022KT 9999 BKN009 11/09 Q1003

EXPIRED METARs :
  • 171620Z 15023KT 9999 BKN009 BKN016 10/09 Q1003
  • 171550Z 15026KT 9999 BKN008 BKN016 10/09 Q1003
  • 171520Z 15028KT 9999 BKN008 SCT015 10/09 Q1003
  • 171450Z 15025KT 9999 -RA SCT010 SCT018 BKN027 10/08 Q1004
  • 171420Z 15022KT 9999 -RA SCT013 SCT018 BKN027 10/08 Q1005

TAF AMD TAF EGEC
Valid from the 17 at 15:00 until the 17 at 18:00 UTC


171530Z 1715/1718 16025G38KT 9999 FEW012 SCT025
TEMPO 1715/1718 6000 RA SHRA BKN008
No reported NOTAMs for that airfield.
1 SIGMET reported for the Scottish FIR (EGPX) :
 
Severe turbulence
EGPX SIGMET 01 VALID 171600/172000 EGRR
EGPX SCOTTISH FIR SEV TURB FCST SW OF LINE N6100 W00900 - N5520 W00730 SFC/FL060 MOV E 10KT INTSF=



MET'MAP, your aeronautical weather chart ! - Copyright ORBIFLY December 2007 - Disclaimer

ORBIFLY MET'MAP TEAM :

Programming & Development : Alexandra Zaïnal
Concept & Development : Baudouin d'Aumeries
Co-Development & Prog : Marc-Olivier Méhu
Technical & hardware support : Manuel Goepfert

Contact : metmap@orbifly.com




SOURCES & CREDITS :

   NOAA